sensor_id;sensor_type;location;lat;lon;timestamp;temperature;humidity
54930;DHT22;40833;53.238;6.576;2024-02-21T00:01:50;9.50;99.90
54930;DHT22;40833;53.238;6.576;2024-02-21T00:04:16;9.50;99.90
54930;DHT22;40833;53.238;6.576;2024-02-21T00:06:42;9.50;99.90
54930;DHT22;40833;53.238;6.576;2024-02-21T00:09:07;9.50;99.90
54930;DHT22;40833;53.238;6.576;2024-02-21T00:11:35;9.50;99.90
54930;DHT22;40833;53.238;6.576;2024-02-21T00:14:00;9.50;99.90
54930;DHT22;40833;53.238;6.576;2024-02-21T00:16:26;9.30;99.90
54930;DHT22;40833;53.238;6.576;2024-02-21T00:18:52;9.40;99.90
54930;DHT22;40833;53.238;6.576;2024-02-21T00:21:17;9.40;99.90
54930;DHT22;40833;53.238;6.576;2024-02-21T00:23:46;9.50;99.90
54930;DHT22;40833;53.238;6.576;2024-02-21T00:26:15;9.30;99.90
54930;DHT22;40833;53.238;6.576;2024-02-21T00:28:40;9.30;99.90
54930;DHT22;40833;53.238;6.576;2024-02-21T00:31:06;9.50;99.90
54930;DHT22;40833;53.238;6.576;2024-02-21T00:33:32;9.20;99.90
54930;DHT22;40833;53.238;6.576;2024-02-21T00:35:57;9.20;99.90
54930;DHT22;40833;53.238;6.576;2024-02-21T00:38:23;9.20;99.90
54930;DHT22;40833;53.238;6.576;2024-02-21T00:40:49;9.30;99.90
54930;DHT22;40833;53.238;6.576;2024-02-21T00:43:14;9.10;99.90
54930;DHT22;40833;53.238;6.576;2024-02-21T00:45:40;9.10;99.90
54930;DHT22;40833;53.238;6.576;2024-02-21T00:48:06;9.10;99.90
54930;DHT22;40833;53.238;6.576;2024-02-21T00:50:32;9.10;99.90
54930;DHT22;40833;53.238;6.576;2024-02-21T00:52:58;9.10;99.90
54930;DHT22;40833;53.238;6.576;2024-02-21T00:55:23;9.10;99.90
54930;DHT22;40833;53.238;6.576;2024-02-21T00:57:49;9.00;99.90
54930;DHT22;40833;53.238;6.576;2024-02-21T01:00:15;9.00;99.90
54930;DHT22;40833;53.238;6.576;2024-02-21T01:02:40;9.00;99.90
54930;DHT22;40833;53.238;6.576;2024-02-21T01:05:07;9.00;99.90
54930;DHT22;40833;53.238;6.576;2024-02-21T01:07:32;9.00;99.90
54930;DHT22;40833;53.238;6.576;2024-02-21T01:09:58;9.20;99.90
54930;DHT22;40833;53.238;6.576;2024-02-21T01:12:24;9.00;99.90
54930;DHT22;40833;53.238;6.576;2024-02-21T01:14:50;9.00;99.90
54930;DHT22;40833;53.238;6.576;2024-02-21T01:17:15;9.00;99.90
54930;DHT22;40833;53.238;6.576;2024-02-21T01:19:41;9.20;99.90
54930;DHT22;40833;53.238;6.576;2024-02-21T01:22:07;9.00;99.90
54930;DHT22;40833;53.238;6.576;2024-02-21T01:24:33;9.00;99.90
54930;DHT22;40833;53.238;6.576;2024-02-21T01:26:58;9.10;99.90
54930;DHT22;40833;53.238;6.576;2024-02-21T01:29:24;9.00;99.90
54930;DHT22;40833;53.238;6.576;2024-02-21T01:31:50;9.00;99.90
54930;DHT22;40833;53.238;6.576;2024-02-21T01:34:16;9.00;99.90
54930;DHT22;40833;53.238;6.576;2024-02-21T01:36:41;9.00;99.90
54930;DHT22;40833;53.238;6.576;2024-02-21T01:39:07;8.90;99.90
54930;DHT22;40833;53.238;6.576;2024-02-21T01:41:33;8.90;99.90
54930;DHT22;40833;53.238;6.576;2024-02-21T01:43:59;8.90;99.90
54930;DHT22;40833;53.238;6.576;2024-02-21T01:46:25;8.90;99.90
54930;DHT22;40833;53.238;6.576;2024-02-21T01:48:57;8.90;99.90
54930;DHT22;40833;53.238;6.576;2024-02-21T01:51:26;8.80;99.90
54930;DHT22;40833;53.238;6.576;2024-02-21T01:53:53;8.90;99.90
54930;DHT22;40833;53.238;6.576;2024-02-21T01:56:21;8.80;99.90
54930;DHT22;40833;53.238;6.576;2024-02-21T01:58:48;8.80;99.90
54930;DHT22;40833;53.238;6.576;2024-02-21T02:01:14;8.80;99.90
54930;DHT22;40833;53.238;6.576;2024-02-21T02:03:40;8.60;99.90
54930;DHT22;40833;53.238;6.576;2024-02-21T02:06:06;8.80;99.90
54930;DHT22;40833;53.238;6.576;2024-02-21T02:08:32;8.80;99.90
54930;DHT22;40833;53.238;6.576;2024-02-21T02:10:59;8.70;99.90
54930;DHT22;40833;53.238;6.576;2024-02-21T02:13:24;8.70;99.90
54930;DHT22;40833;53.238;6.576;2024-02-21T02:15:50;8.70;99.90
54930;DHT22;40833;53.238;6.576;2024-02-21T02:18:17;9.00;99.90
54930;DHT22;40833;53.238;6.576;2024-02-21T02:20:44;8.70;99.90
54930;DHT22;40833;53.238;6.576;2024-02-21T02:23:33;10.50;99.90
54930;DHT22;40833;53.238;6.576;2024-02-21T02:25:58;8.70;99.90
54930;DHT22;40833;53.238;6.576;2024-02-21T02:28:24;8.80;99.90
54930;DHT22;40833;53.238;6.576;2024-02-21T02:30:50;8.70;99.90
54930;DHT22;40833;53.238;6.576;2024-02-21T02:33:16;8.80;99.90
54930;DHT22;40833;53.238;6.576;2024-02-21T02:35:44;8.80;99.90
54930;DHT22;40833;53.238;6.576;2024-02-21T02:38:11;8.80;99.90
54930;DHT22;40833;53.238;6.576;2024-02-21T02:40:38;8.80;99.90
54930;DHT22;40833;53.238;6.576;2024-02-21T02:43:04;8.70;99.90
54930;DHT22;40833;53.238;6.576;2024-02-21T02:45:30;9.00;99.90
54930;DHT22;40833;53.238;6.576;2024-02-21T02:47:57;8.80;99.90
54930;DHT22;40833;53.238;6.576;2024-02-21T02:50:23;8.80;99.90
54930;DHT22;40833;53.238;6.576;2024-02-21T02:52:49;8.80;99.90
54930;DHT22;40833;53.238;6.576;2024-02-21T02:55:15;8.80;99.90
54930;DHT22;40833;53.238;6.576;2024-02-21T02:57:40;8.80;99.90
54930;DHT22;40833;53.238;6.576;2024-02-21T03:00:11;8.80;99.90
54930;DHT22;40833;53.238;6.576;2024-02-21T03:02:38;8.80;99.90
54930;DHT22;40833;53.238;6.576;2024-02-21T03:05:14;9.00;99.90
54930;DHT22;40833;53.238;6.576;2024-02-21T03:07:40;8.80;99.90
54930;DHT22;40833;53.238;6.576;2024-02-21T03:10:06;8.80;99.90
54930;DHT22;40833;53.238;6.576;2024-02-21T03:12:32;8.90;99.90
54930;DHT22;40833;53.238;6.576;2024-02-21T03:14:58;9.00;99.90
54930;DHT22;40833;53.238;6.576;2024-02-21T03:17:24;8.90;99.90
54930;DHT22;40833;53.238;6.576;2024-02-21T03:19:50;9.10;99.90
54930;DHT22;40833;53.238;6.576;2024-02-21T03:22:16;9.20;99.90
54930;DHT22;40833;53.238;6.576;2024-02-21T03:24:42;8.80;99.90
54930;DHT22;40833;53.238;6.576;2024-02-21T03:27:09;8.90;99.90
54930;DHT22;40833;53.238;6.576;2024-02-21T03:29:34;8.80;99.90
54930;DHT22;40833;53.238;6.576;2024-02-21T03:32:01;8.80;99.90
54930;DHT22;40833;53.238;6.576;2024-02-21T03:34:26;8.90;99.90
54930;DHT22;40833;53.238;6.576;2024-02-21T03:36:52;8.80;99.90
54930;DHT22;40833;53.238;6.576;2024-02-21T03:39:18;8.90;99.90
54930;DHT22;40833;53.238;6.576;2024-02-21T03:41:44;8.80;99.90
54930;DHT22;40833;53.238;6.576;2024-02-21T03:44:09;8.80;99.90
54930;DHT22;40833;53.238;6.576;2024-02-21T03:46:35;8.90;99.90
54930;DHT22;40833;53.238;6.576;2024-02-21T03:49:01;8.80;99.90
54930;DHT22;40833;53.238;6.576;2024-02-21T03:51:26;8.80;99.90
54930;DHT22;40833;53.238;6.576;2024-02-21T03:53:52;8.90;99.90
54930;DHT22;40833;53.238;6.576;2024-02-21T03:56:18;8.90;99.90
54930;DHT22;40833;53.238;6.576;2024-02-21T03:58:43;8.90;99.90
54930;DHT22;40833;53.238;6.576;2024-02-21T04:01:09;8.90;99.90
54930;DHT22;40833;53.238;6.576;2024-02-21T04:03:35;8.80;99.90
54930;DHT22;40833;53.238;6.576;2024-02-21T04:06:00;8.90;99.90
54930;DHT22;40833;53.238;6.576;2024-02-21T04:08:26;8.90;99.90
54930;DHT22;40833;53.238;6.576;2024-02-21T04:10:52;9.20;99.90
54930;DHT22;40833;53.238;6.576;2024-02-21T04:13:18;8.90;99.90
54930;DHT22;40833;53.238;6.576;2024-02-21T04:15:43;8.90;99.90
54930;DHT22;40833;53.238;6.576;2024-02-21T04:18:09;8.80;99.90
54930;DHT22;40833;53.238;6.576;2024-02-21T04:20:35;8.90;99.90
54930;DHT22;40833;53.238;6.576;2024-02-21T04:23:01;8.80;99.90
54930;DHT22;40833;53.238;6.576;2024-02-21T04:25:27;8.80;99.90
54930;DHT22;40833;53.238;6.576;2024-02-21T04:27:52;9.10;99.90
54930;DHT22;40833;53.238;6.576;2024-02-21T04:30:18;9.00;99.90
54930;DHT22;40833;53.238;6.576;2024-02-21T04:32:44;8.90;99.90
54930;DHT22;40833;53.238;6.576;2024-02-21T04:35:09;8.80;99.90
54930;DHT22;40833;53.238;6.576;2024-02-21T04:37:35;8.80;99.90
54930;DHT22;40833;53.238;6.576;2024-02-21T04:40:01;8.80;99.90
54930;DHT22;40833;53.238;6.576;2024-02-21T04:42:26;8.90;99.90
54930;DHT22;40833;53.238;6.576;2024-02-21T04:44:52;9.20;99.90
54930;DHT22;40833;53.238;6.576;2024-02-21T04:47:18;8.90;99.90
54930;DHT22;40833;53.238;6.576;2024-02-21T04:49:45;8.90;99.90
54930;DHT22;40833;53.238;6.576;2024-02-21T04:52:12;8.90;99.90
54930;DHT22;40833;53.238;6.576;2024-02-21T04:54:37;8.90;99.90
54930;DHT22;40833;53.238;6.576;2024-02-21T04:57:03;8.90;99.90
54930;DHT22;40833;53.238;6.576;2024-02-21T04:59:29;8.90;99.90
54930;DHT22;40833;53.238;6.576;2024-02-21T05:01:55;8.80;99.90
54930;DHT22;40833;53.238;6.576;2024-02-21T05:04:21;8.80;99.90
54930;DHT22;40833;53.238;6.576;2024-02-21T05:06:46;8.90;99.90
54930;DHT22;40833;53.238;6.576;2024-02-21T05:09:12;8.80;99.90
54930;DHT22;40833;53.238;6.576;2024-02-21T05:11:38;8.80;99.90
54930;DHT22;40833;53.238;6.576;2024-02-21T05:14:04;8.80;99.90
54930;DHT22;40833;53.238;6.576;2024-02-21T05:16:31;9.00;99.90
54930;DHT22;40833;53.238;6.576;2024-02-21T05:18:56;8.80;99.90
54930;DHT22;40833;53.238;6.576;2024-02-21T05:21:25;8.80;99.90
54930;DHT22;40833;53.238;6.576;2024-02-21T05:23:51;8.80;99.90
54930;DHT22;40833;53.238;6.576;2024-02-21T05:26:24;8.80;99.90
54930;DHT22;40833;53.238;6.576;2024-02-21T05:28:50;8.90;99.90
54930;DHT22;40833;53.238;6.576;2024-02-21T05:31:18;10.60;99.90
54930;DHT22;40833;53.238;6.576;2024-02-21T05:33:44;8.80;99.90
54930;DHT22;40833;53.238;6.576;2024-02-21T05:36:10;8.90;99.90
54930;DHT22;40833;53.238;6.576;2024-02-21T05:38:36;8.70;99.90
54930;DHT22;40833;53.238;6.576;2024-02-21T05:41:02;8.80;99.90
54930;DHT22;40833;53.238;6.576;2024-02-21T05:43:28;8.80;99.90
54930;DHT22;40833;53.238;6.576;2024-02-21T05:45:54;8.80;99.90
54930;DHT22;40833;53.238;6.576;2024-02-21T05:48:21;8.80;99.90
54930;DHT22;40833;53.238;6.576;2024-02-21T05:50:47;8.80;99.90
54930;DHT22;40833;53.238;6.576;2024-02-21T05:53:13;8.80;99.90
54930;DHT22;40833;53.238;6.576;2024-02-21T05:55:39;8.80;99.90
54930;DHT22;40833;53.238;6.576;2024-02-21T05:58:05;8.80;99.90
54930;DHT22;40833;53.238;6.576;2024-02-21T06:00:32;8.80;99.90
54930;DHT22;40833;53.238;6.576;2024-02-21T06:02:57;8.80;99.90
54930;DHT22;40833;53.238;6.576;2024-02-21T06:05:23;9.10;99.90
54930;DHT22;40833;53.238;6.576;2024-02-21T06:07:49;8.80;99.90
54930;DHT22;40833;53.238;6.576;2024-02-21T06:10:15;8.80;99.90
54930;DHT22;40833;53.238;6.576;2024-02-21T06:12:41;8.80;99.90
54930;DHT22;40833;53.238;6.576;2024-02-21T06:15:06;8.80;99.90
54930;DHT22;40833;53.238;6.576;2024-02-21T06:17:32;8.80;99.90
54930;DHT22;40833;53.238;6.576;2024-02-21T06:19:58;8.80;99.90
54930;DHT22;40833;53.238;6.576;2024-02-21T06:22:24;8.70;99.90
54930;DHT22;40833;53.238;6.576;2024-02-21T06:24:49;8.80;99.90
54930;DHT22;40833;53.238;6.576;2024-02-21T06:27:15;8.80;99.90
54930;DHT22;40833;53.238;6.576;2024-02-21T06:29:42;8.80;99.90
54930;DHT22;40833;53.238;6.576;2024-02-21T06:32:07;8.80;99.90
54930;DHT22;40833;53.238;6.576;2024-02-21T06:34:33;9.00;99.90
54930;DHT22;40833;53.238;6.576;2024-02-21T06:36:59;8.80;99.90
54930;DHT22;40833;53.238;6.576;2024-02-21T06:39:25;8.80;99.90
54930;DHT22;40833;53.238;6.576;2024-02-21T06:41:51;8.80;99.90
54930;DHT22;40833;53.238;6.576;2024-02-21T06:44:17;8.80;99.90
54930;DHT22;40833;53.238;6.576;2024-02-21T06:46:43;8.80;99.90
54930;DHT22;40833;53.238;6.576;2024-02-21T06:49:09;8.80;99.90
54930;DHT22;40833;53.238;6.576;2024-02-21T06:51:34;8.80;99.90
54930;DHT22;40833;53.238;6.576;2024-02-21T06:54:00;7.00;99.90
54930;DHT22;40833;53.238;6.576;2024-02-21T06:56:26;8.80;99.90
54930;DHT22;40833;53.238;6.576;2024-02-21T06:58:57;8.80;99.90
54930;DHT22;40833;53.238;6.576;2024-02-21T07:01:26;8.80;99.90
54930;DHT22;40833;53.238;6.576;2024-02-21T07:03:51;8.80;99.90
54930;DHT22;40833;53.238;6.576;2024-02-21T07:06:17;8.90;99.90
54930;DHT22;40833;53.238;6.576;2024-02-21T07:08:43;8.80;99.90
54930;DHT22;40833;53.238;6.576;2024-02-21T07:11:08;8.80;99.90
54930;DHT22;40833;53.238;6.576;2024-02-21T07:13:34;8.80;99.90
54930;DHT22;40833;53.238;6.576;2024-02-21T07:16:00;8.80;99.90
54930;DHT22;40833;53.238;6.576;2024-02-21T07:18:26;8.80;99.90
54930;DHT22;40833;53.238;6.576;2024-02-21T07:20:52;8.70;99.90
54930;DHT22;40833;53.238;6.576;2024-02-21T07:23:18;8.80;99.90
54930;DHT22;40833;53.238;6.576;2024-02-21T07:25:44;9.00;99.90
54930;DHT22;40833;53.238;6.576;2024-02-21T07:28:10;8.70;99.90
54930;DHT22;40833;53.238;6.576;2024-02-21T07:30:36;8.80;99.90
54930;DHT22;40833;53.238;6.576;2024-02-21T07:33:02;9.00;99.90
54930;DHT22;40833;53.238;6.576;2024-02-21T07:35:28;8.80;99.90
54930;DHT22;40833;53.238;6.576;2024-02-21T07:37:53;8.80;99.90
54930;DHT22;40833;53.238;6.576;2024-02-21T07:40:19;8.80;99.90
54930;DHT22;40833;53.238;6.576;2024-02-21T07:42:45;8.80;99.90
54930;DHT22;40833;53.238;6.576;2024-02-21T07:45:10;8.80;99.90
54930;DHT22;40833;53.238;6.576;2024-02-21T07:47:37;8.80;99.90
54930;DHT22;40833;53.238;6.576;2024-02-21T07:50:03;8.80;99.90
54930;DHT22;40833;53.238;6.576;2024-02-21T07:52:29;8.80;99.90
54930;DHT22;40833;53.238;6.576;2024-02-21T07:54:54;8.80;99.90
54930;DHT22;40833;53.238;6.576;2024-02-21T07:57:20;8.80;99.90
54930;DHT22;40833;53.238;6.576;2024-02-21T07:59:46;8.90;99.90
54930;DHT22;40833;53.238;6.576;2024-02-21T08:02:16;8.90;99.90
54930;DHT22;40833;53.238;6.576;2024-02-21T08:04:42;8.90;99.90
54930;DHT22;40833;53.238;6.576;2024-02-21T08:07:09;9.00;99.90
54930;DHT22;40833;53.238;6.576;2024-02-21T08:09:35;8.90;99.90
54930;DHT22;40833;53.238;6.576;2024-02-21T08:12:03;9.00;99.90
54930;DHT22;40833;53.238;6.576;2024-02-21T08:14:29;9.00;99.90
54930;DHT22;40833;53.238;6.576;2024-02-21T08:16:55;9.00;99.90
54930;DHT22;40833;53.238;6.576;2024-02-21T08:19:21;9.00;99.90
54930;DHT22;40833;53.238;6.576;2024-02-21T08:21:50;9.00;99.90
54930;DHT22;40833;53.238;6.576;2024-02-21T08:24:16;9.00;99.90
54930;DHT22;40833;53.238;6.576;2024-02-21T08:26:43;9.10;99.90
54930;DHT22;40833;53.238;6.576;2024-02-21T08:29:10;9.00;99.90
54930;DHT22;40833;53.238;6.576;2024-02-21T08:31:37;9.00;99.90
54930;DHT22;40833;53.238;6.576;2024-02-21T08:34:03;9.00;99.90
54930;DHT22;40833;53.238;6.576;2024-02-21T08:36:35;9.10;99.90
54930;DHT22;40833;53.238;6.576;2024-02-21T08:39:01;9.10;99.90
54930;DHT22;40833;53.238;6.576;2024-02-21T08:41:30;9.00;99.90
54930;DHT22;40833;53.238;6.576;2024-02-21T08:43:56;9.00;99.90
54930;DHT22;40833;53.238;6.576;2024-02-21T08:46:22;9.00;99.90
54930;DHT22;40833;53.238;6.576;2024-02-21T08:48:50;9.10;99.90
54930;DHT22;40833;53.238;6.576;2024-02-21T08:51:17;9.10;99.90
54930;DHT22;40833;53.238;6.576;2024-02-21T08:53:46;9.10;99.90
54930;DHT22;40833;53.238;6.576;2024-02-21T08:56:13;9.10;99.90
54930;DHT22;40833;53.238;6.576;2024-02-21T08:58:42;9.10;99.90
54930;DHT22;40833;53.238;6.576;2024-02-21T09:01:08;9.10;99.90
54930;DHT22;40833;53.238;6.576;2024-02-21T09:03:39;9.10;99.90
54930;DHT22;40833;53.238;6.576;2024-02-21T09:06:05;9.10;99.90
54930;DHT22;40833;53.238;6.576;2024-02-21T09:08:32;9.10;99.90
54930;DHT22;40833;53.238;6.576;2024-02-21T09:10:57;9.10;99.90
54930;DHT22;40833;53.238;6.576;2024-02-21T09:13:23;9.10;99.90
54930;DHT22;40833;53.238;6.576;2024-02-21T09:15:49;9.10;99.90
54930;DHT22;40833;53.238;6.576;2024-02-21T09:18:16;9.20;99.90
54930;DHT22;40833;53.238;6.576;2024-02-21T09:20:42;9.20;99.90
54930;DHT22;40833;53.238;6.576;2024-02-21T09:23:08;9.20;99.90
54930;DHT22;40833;53.238;6.576;2024-02-21T09:25:34;9.20;99.90
54930;DHT22;40833;53.238;6.576;2024-02-21T09:28:01;9.20;99.90
54930;DHT22;40833;53.238;6.576;2024-02-21T09:30:27;9.20;99.90
54930;DHT22;40833;53.238;6.576;2024-02-21T09:32:53;9.20;99.90
54930;DHT22;40833;53.238;6.576;2024-02-21T09:35:19;9.30;99.90
54930;DHT22;40833;53.238;6.576;2024-02-21T09:37:44;9.30;99.90
54930;DHT22;40833;53.238;6.576;2024-02-21T09:40:10;9.30;99.90
54930;DHT22;40833;53.238;6.576;2024-02-21T09:42:41;9.30;99.90
54930;DHT22;40833;53.238;6.576;2024-02-21T09:45:27;9.30;99.90
54930;DHT22;40833;53.238;6.576;2024-02-21T09:50:34;9.30;99.90
54930;DHT22;40833;53.238;6.576;2024-02-21T09:53:02;9.30;99.90
54930;DHT22;40833;53.238;6.576;2024-02-21T09:55:31;9.30;99.90
54930;DHT22;40833;53.238;6.576;2024-02-21T09:58:01;9.30;99.90
54930;DHT22;40833;53.238;6.576;2024-02-21T10:00:27;9.30;99.90
54930;DHT22;40833;53.238;6.576;2024-02-21T10:02:54;9.30;99.90
54930;DHT22;40833;53.238;6.576;2024-02-21T10:05:19;9.30;99.90
54930;DHT22;40833;53.238;6.576;2024-02-21T10:07:45;9.30;99.90
54930;DHT22;40833;53.238;6.576;2024-02-21T10:10:11;9.30;99.90
54930;DHT22;40833;53.238;6.576;2024-02-21T10:12:50;9.30;99.90
54930;DHT22;40833;53.238;6.576;2024-02-21T10:15:20;9.30;99.90
54930;DHT22;40833;53.238;6.576;2024-02-21T10:17:47;9.40;99.90
54930;DHT22;40833;53.238;6.576;2024-02-21T10:20:12;9.40;99.90
54930;DHT22;40833;53.238;6.576;2024-02-21T10:22:39;9.40;99.90
54930;DHT22;40833;53.238;6.576;2024-02-21T10:25:12;9.40;99.90
54930;DHT22;40833;53.238;6.576;2024-02-21T10:27:41;9.50;99.90
54930;DHT22;40833;53.238;6.576;2024-02-21T10:30:14;9.50;99.90
54930;DHT22;40833;53.238;6.576;2024-02-21T10:32:55;9.50;99.90
54930;DHT22;40833;53.238;6.576;2024-02-21T10:35:32;9.50;99.90
54930;DHT22;40833;53.238;6.576;2024-02-21T10:37:59;9.50;99.90
54930;DHT22;40833;53.238;6.576;2024-02-21T10:40:28;9.50;99.90
54930;DHT22;40833;53.238;6.576;2024-02-21T10:42:59;9.50;99.90
54930;DHT22;40833;53.238;6.576;2024-02-21T10:45:32;9.50;99.90
54930;DHT22;40833;53.238;6.576;2024-02-21T10:50:30;9.60;99.90
54930;DHT22;40833;53.238;6.576;2024-02-21T10:53:24;9.60;99.90
54930;DHT22;40833;53.238;6.576;2024-02-21T10:56:30;9.60;99.90
54930;DHT22;40833;53.238;6.576;2024-02-21T10:59:01;9.60;99.90
54930;DHT22;40833;53.238;6.576;2024-02-21T11:01:28;9.60;99.90
54930;DHT22;40833;53.238;6.576;2024-02-21T11:03:58;9.60;99.90
54930;DHT22;40833;53.238;6.576;2024-02-21T11:06:26;9.70;99.90
54930;DHT22;40833;53.238;6.576;2024-02-21T11:09:06;9.80;99.90
54930;DHT22;40833;53.238;6.576;2024-02-21T11:11:37;10.00;99.90
54930;DHT22;40833;53.238;6.576;2024-02-21T11:14:20;10.10;99.90
54930;DHT22;40833;53.238;6.576;2024-02-21T11:16:46;10.20;99.90
54930;DHT22;40833;53.238;6.576;2024-02-21T11:19:28;10.20;99.90
54930;DHT22;40833;53.238;6.576;2024-02-21T11:21:55;10.30;99.90
54930;DHT22;40833;53.238;6.576;2024-02-21T11:24:34;10.40;99.90
54930;DHT22;40833;53.238;6.576;2024-02-21T11:27:22;10.40;99.90
54930;DHT22;40833;53.238;6.576;2024-02-21T11:29:57;10.40;99.90
54930;DHT22;40833;53.238;6.576;2024-02-21T11:32:25;10.40;99.90
54930;DHT22;40833;53.238;6.576;2024-02-21T11:37:19;10.40;99.90
54930;DHT22;40833;53.238;6.576;2024-02-21T11:39:45;10.50;99.90
54930;DHT22;40833;53.238;6.576;2024-02-21T11:42:11;10.40;99.90
54930;DHT22;40833;53.238;6.576;2024-02-21T11:44:38;10.40;99.90
54930;DHT22;40833;53.238;6.576;2024-02-21T11:47:06;10.40;99.90
54930;DHT22;40833;53.238;6.576;2024-02-21T11:49:38;10.30;99.90
54930;DHT22;40833;53.238;6.576;2024-02-21T11:52:07;10.20;99.90
54930;DHT22;40833;53.238;6.576;2024-02-21T11:54:33;10.20;99.90
54930;DHT22;40833;53.238;6.576;2024-02-21T11:57:00;10.20;99.90
54930;DHT22;40833;53.238;6.576;2024-02-21T11:59:26;10.20;99.90
54930;DHT22;40833;53.238;6.576;2024-02-21T12:01:55;10.10;99.90
54930;DHT22;40833;53.238;6.576;2024-02-21T12:04:21;10.20;99.90
54930;DHT22;40833;53.238;6.576;2024-02-21T12:06:49;10.30;99.90
54930;DHT22;40833;53.238;6.576;2024-02-21T12:09:15;10.10;99.90
54930;DHT22;40833;53.238;6.576;2024-02-21T12:11:43;10.10;99.90
54930;DHT22;40833;53.238;6.576;2024-02-21T12:14:08;10.10;99.90
54930;DHT22;40833;53.238;6.576;2024-02-21T12:16:34;10.20;99.90
54930;DHT22;40833;53.238;6.576;2024-02-21T12:19:03;10.20;99.90
54930;DHT22;40833;53.238;6.576;2024-02-21T12:21:33;10.20;99.90
54930;DHT22;40833;53.238;6.576;2024-02-21T12:26:41;10.10;99.90
54930;DHT22;40833;53.238;6.576;2024-02-21T12:29:07;10.20;99.90
54930;DHT22;40833;53.238;6.576;2024-02-21T12:31:36;10.10;99.90
54930;DHT22;40833;53.238;6.576;2024-02-21T12:34:02;10.00;99.90
54930;DHT22;40833;53.238;6.576;2024-02-21T12:36:28;10.20;99.90
54930;DHT22;40833;53.238;6.576;2024-02-21T12:38:54;10.20;99.90
54930;DHT22;40833;53.238;6.576;2024-02-21T12:41:20;10.20;99.90
54930;DHT22;40833;53.238;6.576;2024-02-21T12:43:46;10.20;99.90
54930;DHT22;40833;53.238;6.576;2024-02-21T12:46:12;10.20;99.90
54930;DHT22;40833;53.238;6.576;2024-02-21T12:48:38;10.20;99.90
54930;DHT22;40833;53.238;6.576;2024-02-21T12:51:05;10.20;99.90
54930;DHT22;40833;53.238;6.576;2024-02-21T12:53:31;10.30;99.90
54930;DHT22;40833;53.238;6.576;2024-02-21T12:55:57;10.30;99.90
54930;DHT22;40833;53.238;6.576;2024-02-21T12:58:22;10.30;99.90
54930;DHT22;40833;53.238;6.576;2024-02-21T13:00:48;10.30;99.90
54930;DHT22;40833;53.238;6.576;2024-02-21T13:03:14;10.30;99.90
54930;DHT22;40833;53.238;6.576;2024-02-21T13:05:39;10.30;99.90
54930;DHT22;40833;53.238;6.576;2024-02-21T13:08:06;10.30;99.90
54930;DHT22;40833;53.238;6.576;2024-02-21T13:10:32;10.30;99.90
54930;DHT22;40833;53.238;6.576;2024-02-21T13:13:00;10.30;99.90
54930;DHT22;40833;53.238;6.576;2024-02-21T13:15:26;10.30;99.90
54930;DHT22;40833;53.238;6.576;2024-02-21T13:17:53;10.30;99.90
54930;DHT22;40833;53.238;6.576;2024-02-21T13:20:20;10.30;99.90
54930;DHT22;40833;53.238;6.576;2024-02-21T13:22:46;10.40;99.90
54930;DHT22;40833;53.238;6.576;2024-02-21T13:25:12;10.40;99.90
54930;DHT22;40833;53.238;6.576;2024-02-21T13:27:41;10.40;99.90
54930;DHT22;40833;53.238;6.576;2024-02-21T13:30:07;10.40;99.90
54930;DHT22;40833;53.238;6.576;2024-02-21T13:32:34;10.40;99.90
54930;DHT22;40833;53.238;6.576;2024-02-21T13:35:00;10.50;99.90
54930;DHT22;40833;53.238;6.576;2024-02-21T13:37:28;10.60;99.90
54930;DHT22;40833;53.238;6.576;2024-02-21T13:39:54;10.60;99.90
54930;DHT22;40833;53.238;6.576;2024-02-21T13:42:20;10.60;99.90
54930;DHT22;40833;53.238;6.576;2024-02-21T13:44:46;10.70;99.90
54930;DHT22;40833;53.238;6.576;2024-02-21T13:47:14;10.80;99.90
54930;DHT22;40833;53.238;6.576;2024-02-21T13:49:40;10.60;99.90
54930;DHT22;40833;53.238;6.576;2024-02-21T13:52:05;10.60;99.90
54930;DHT22;40833;53.238;6.576;2024-02-21T13:54:31;10.60;99.90
54930;DHT22;40833;53.238;6.576;2024-02-21T13:56:57;10.50;99.90
54930;DHT22;40833;53.238;6.576;2024-02-21T13:59:23;10.50;99.90
54930;DHT22;40833;53.238;6.576;2024-02-21T14:01:48;10.50;99.90
54930;DHT22;40833;53.238;6.576;2024-02-21T14:04:14;10.40;99.90
54930;DHT22;40833;53.238;6.576;2024-02-21T14:06:40;10.50;99.90
54930;DHT22;40833;53.238;6.576;2024-02-21T14:09:14;10.50;99.90
54930;DHT22;40833;53.238;6.576;2024-02-21T14:11:40;10.50;99.90
54930;DHT22;40833;53.238;6.576;2024-02-21T14:14:07;10.40;99.90
54930;DHT22;40833;53.238;6.576;2024-02-21T14:16:33;10.30;99.90
54930;DHT22;40833;53.238;6.576;2024-02-21T14:18:59;10.30;99.90
54930;DHT22;40833;53.238;6.576;2024-02-21T14:21:24;10.30;99.90
54930;DHT22;40833;53.238;6.576;2024-02-21T14:23:51;10.30;99.90
54930;DHT22;40833;53.238;6.576;2024-02-21T14:26:18;10.30;99.90
54930;DHT22;40833;53.238;6.576;2024-02-21T14:28:44;10.30;99.90
54930;DHT22;40833;53.238;6.576;2024-02-21T14:31:09;10.30;99.90
54930;DHT22;40833;53.238;6.576;2024-02-21T14:33:36;10.20;99.90
54930;DHT22;40833;53.238;6.576;2024-02-21T14:36:01;10.20;99.90
54930;DHT22;40833;53.238;6.576;2024-02-21T14:38:28;10.20;99.90
54930;DHT22;40833;53.238;6.576;2024-02-21T14:40:53;10.20;99.90
54930;DHT22;40833;53.238;6.576;2024-02-21T14:43:19;10.10;99.90
54930;DHT22;40833;53.238;6.576;2024-02-21T14:45:47;10.10;99.90
54930;DHT22;40833;53.238;6.576;2024-02-21T14:48:13;10.00;99.90
54930;DHT22;40833;53.238;6.576;2024-02-21T14:50:39;10.00;99.90
54930;DHT22;40833;53.238;6.576;2024-02-21T14:53:06;10.10;99.90
54930;DHT22;40833;53.238;6.576;2024-02-21T14:55:33;10.00;99.90
54930;DHT22;40833;53.238;6.576;2024-02-21T14:57:59;10.00;99.90
54930;DHT22;40833;53.238;6.576;2024-02-21T15:00:26;9.90;99.90
54930;DHT22;40833;53.238;6.576;2024-02-21T15:02:58;9.90;99.90
54930;DHT22;40833;53.238;6.576;2024-02-21T15:05:24;9.80;99.90
54930;DHT22;40833;53.238;6.576;2024-02-21T15:07:51;9.80;99.90
54930;DHT22;40833;53.238;6.576;2024-02-21T15:10:16;9.80;99.90
54930;DHT22;40833;53.238;6.576;2024-02-21T15:12:46;9.80;99.90
54930;DHT22;40833;53.238;6.576;2024-02-21T15:15:12;9.80;99.90
54930;DHT22;40833;53.238;6.576;2024-02-21T15:17:38;9.70;99.90
54930;DHT22;40833;53.238;6.576;2024-02-21T15:20:05;9.70;99.90
54930;DHT22;40833;53.238;6.576;2024-02-21T15:22:33;9.70;99.90
54930;DHT22;40833;53.238;6.576;2024-02-21T15:24:59;9.70;99.90
54930;DHT22;40833;53.238;6.576;2024-02-21T15:27:30;9.70;99.90
54930;DHT22;40833;53.238;6.576;2024-02-21T15:29:56;9.70;99.90
54930;DHT22;40833;53.238;6.576;2024-02-21T15:32:23;9.70;99.90
54930;DHT22;40833;53.238;6.576;2024-02-21T15:34:49;9.70;99.90
54930;DHT22;40833;53.238;6.576;2024-02-21T15:37:14;9.80;99.90
54930;DHT22;40833;53.238;6.576;2024-02-21T15:39:43;9.60;99.90
54930;DHT22;40833;53.238;6.576;2024-02-21T15:42:11;9.60;99.90
54930;DHT22;40833;53.238;6.576;2024-02-21T15:44:37;9.60;99.90
54930;DHT22;40833;53.238;6.576;2024-02-21T15:47:03;9.60;99.90
54930;DHT22;40833;53.238;6.576;2024-02-21T15:49:29;9.70;99.90
54930;DHT22;40833;53.238;6.576;2024-02-21T15:51:54;9.70;99.90